createdAt,value
2022-12-18T00:04:57.092Z,13
2022-12-18T00:11:01.846Z,12
2022-12-18T00:16:55.576Z,12
2022-12-18T00:23:00.829Z,13
2022-12-18T00:28:53.410Z,13
2022-12-18T00:35:08.413Z,12
2022-12-18T00:40:58.873Z,13
2022-12-18T00:46:59.902Z,12
2022-12-18T00:52:51.592Z,13
2022-12-18T00:59:06.894Z,13
2022-12-18T01:05:07.681Z,13
2022-12-18T01:11:14.589Z,12
2022-12-18T01:16:55.654Z,12
2022-12-18T01:22:58.998Z,12
2022-12-18T01:29:04.882Z,13
2022-12-18T01:35:09.399Z,12
2022-12-18T01:41:07.958Z,14
2022-12-18T01:46:42.788Z,13
2022-12-18T01:52:44.843Z,13
2022-12-18T01:58:49.751Z,13
2022-12-18T02:04:50.892Z,13
2022-12-18T02:10:48.211Z,13
2022-12-18T02:16:42.806Z,12
2022-12-18T02:22:42.864Z,13
2022-12-18T02:28:42.324Z,12
2022-12-18T02:34:57.277Z,13
2022-12-18T02:41:04.214Z,11
2022-12-18T02:47:03.138Z,12
2022-12-18T02:52:44.362Z,11
2022-12-18T02:58:44.875Z,11
2022-12-18T03:04:48.127Z,13
2022-12-18T03:10:45.759Z,12
2022-12-18T03:16:52.449Z,12
2022-12-18T03:22:51.943Z,12
2022-12-18T03:28:42.757Z,12
2022-12-18T03:34:42.487Z,12
2022-12-18T03:40:43.037Z,12
2022-12-18T03:46:42.708Z,12
2022-12-18T03:52:42.459Z,11
2022-12-18T03:58:43.303Z,12
2022-12-18T04:04:43.182Z,12
2022-12-18T04:10:43.326Z,12
2022-12-18T04:16:42.901Z,12
2022-12-18T04:22:42.739Z,11
2022-12-18T04:28:42.707Z,13
2022-12-18T04:34:42.716Z,12
2022-12-18T04:40:43.459Z,13
2022-12-18T04:46:42.717Z,12
2022-12-18T04:52:42.918Z,13
2022-12-18T04:58:43.082Z,13
2022-12-18T05:04:42.631Z,13
2022-12-18T05:10:42.933Z,12
2022-12-18T05:16:43.010Z,12
2022-12-18T05:22:42.638Z,13
2022-12-18T05:28:42.980Z,13
2022-12-18T05:34:42.706Z,13
2022-12-18T05:40:43.260Z,13
2022-12-18T05:46:42.805Z,12
2022-12-18T05:52:42.828Z,13
2022-12-18T05:58:42.954Z,13
2022-12-18T06:04:43.050Z,14
2022-12-18T06:10:48.575Z,12
2022-12-18T06:16:42.895Z,13
2022-12-18T06:22:42.771Z,13
2022-12-18T06:28:42.868Z,13
2022-12-18T06:34:43.351Z,12
2022-12-18T06:40:43.419Z,13
2022-12-18T06:46:43.367Z,13
2022-12-18T06:52:43.224Z,13
2022-12-18T06:58:42.893Z,13
2022-12-18T07:04:42.790Z,13
2022-12-18T07:10:46.787Z,13
2022-12-18T07:16:42.816Z,15
2022-12-18T07:22:43.408Z,14
2022-12-18T07:28:42.751Z,13
2022-12-18T07:34:42.675Z,13
2022-12-18T07:40:43.758Z,13
2022-12-18T07:46:42.987Z,14
2022-12-18T07:52:43.292Z,13
2022-12-18T07:58:42.827Z,13
2022-12-18T08:04:42.850Z,12
2022-12-18T08:10:43.288Z,13
2022-12-18T08:16:43.880Z,12
2022-12-18T08:22:43.088Z,12
2022-12-18T08:28:43.207Z,13
2022-12-18T08:34:42.653Z,13
2022-12-18T08:40:43.101Z,13
2022-12-18T08:46:42.771Z,14
2022-12-18T08:52:43.696Z,14
2022-12-18T08:58:43.560Z,14
2022-12-18T09:04:43.514Z,13
2022-12-18T09:10:43.674Z,14
2022-12-18T09:16:43.355Z,14
2022-12-18T09:22:42.688Z,14
2022-12-18T09:28:43.121Z,14
2022-12-18T09:34:44.186Z,14
2022-12-18T09:40:43.539Z,13
2022-12-18T09:46:42.769Z,14
2022-12-18T09:52:42.900Z,14
2022-12-18T09:58:43.484Z,13
2022-12-18T10:04:43.001Z,13
2022-12-18T10:10:43.214Z,12
2022-12-18T10:16:42.416Z,12
2022-12-18T10:22:42.480Z,13
2022-12-18T10:28:43.457Z,13
2022-12-18T10:34:43.300Z,13
2022-12-18T10:40:43.017Z,12
2022-12-18T10:46:43.302Z,12
2022-12-18T10:52:45.259Z,13
2022-12-18T10:58:43.561Z,13
2022-12-18T11:04:42.853Z,12
2022-12-18T11:10:43.195Z,12
2022-12-18T11:16:57.910Z,12
2022-12-18T11:22:43.119Z,14
2022-12-18T11:28:43.565Z,13
2022-12-18T11:34:42.674Z,14
2022-12-18T11:40:43.352Z,13
2022-12-18T11:46:42.593Z,13
2022-12-18T11:52:42.506Z,14
2022-12-18T11:58:43.241Z,13
2022-12-18T12:04:42.581Z,13
2022-12-18T12:10:42.528Z,13
2022-12-18T12:16:42.625Z,13
2022-12-18T12:22:42.412Z,15
2022-12-18T12:28:42.930Z,14
2022-12-18T12:34:42.542Z,14
2022-12-18T12:40:53.506Z,15
2022-12-18T12:46:43.038Z,15
2022-12-18T12:52:43.038Z,15
2022-12-18T12:58:42.881Z,15
2022-12-18T13:04:42.493Z,15
2022-12-18T13:10:42.695Z,16
2022-12-18T13:16:42.837Z,15
2022-12-18T13:22:42.530Z,17
2022-12-18T13:28:42.633Z,17
2022-12-18T13:34:42.442Z,16
2022-12-18T13:40:43.079Z,16
2022-12-18T13:46:42.756Z,15
2022-12-18T13:52:43.498Z,16
2022-12-18T13:58:43.510Z,16
2022-12-18T14:04:43.616Z,16
2022-12-18T14:11:00.117Z,16
2022-12-18T14:16:52.523Z,16
2022-12-18T14:22:57.057Z,17
2022-12-18T14:29:00.189Z,17
2022-12-18T14:34:57.863Z,16
2022-12-18T14:40:54.344Z,17
2022-12-18T14:47:08.240Z,18
2022-12-18T14:53:01.007Z,18
2022-12-18T14:58:57.795Z,18
2022-12-18T15:05:00.493Z,18
2022-12-18T15:10:53.777Z,17
2022-12-18T15:16:46.242Z,18
2022-12-18T15:22:53.478Z,18
2022-12-18T15:28:49.783Z,19
2022-12-18T15:34:44.754Z,17
2022-12-18T15:41:13.108Z,19
2022-12-18T15:47:15.618Z,19
2022-12-18T15:53:07.840Z,19
2022-12-18T15:59:18.543Z,20
2022-12-18T16:05:01.368Z,19
2022-12-18T16:11:13.035Z,18
2022-12-18T16:17:03.177Z,18
2022-12-18T16:23:05.519Z,19
2022-12-18T16:29:07.571Z,18
2022-12-18T16:35:15.879Z,18
2022-12-18T16:41:13.965Z,18
2022-12-18T16:46:58.336Z,18
2022-12-18T16:53:05.155Z,21
2022-12-18T16:59:00.427Z,20
2022-12-18T17:05:06.734Z,20
2022-12-18T17:11:03.193Z,20
2022-12-18T17:17:20.994Z,21
2022-12-18T17:23:00.981Z,21
2022-12-18T17:29:04.599Z,22
2022-12-18T17:34:50.051Z,20
2022-12-18T17:41:02.693Z,21
2022-12-18T17:46:47.957Z,20
2022-12-18T17:53:00.300Z,21
2022-12-18T17:59:08.239Z,21
2022-12-18T18:05:10.589Z,21
2022-12-18T18:11:03.525Z,21
2022-12-18T18:16:57.119Z,21
2022-12-18T18:23:05.486Z,21
2022-12-18T18:28:53.772Z,21
2022-12-18T18:34:55.947Z,22
2022-12-18T18:41:05.802Z,21
2022-12-18T18:47:16.471Z,21
2022-12-18T18:53:13.998Z,21
2022-12-18T18:59:08.792Z,21
2022-12-18T19:05:17.034Z,21
2022-12-18T19:11:16.924Z,19
2022-12-18T19:16:51.696Z,20
2022-12-18T19:22:55.606Z,20
2022-12-18T19:29:03.287Z,19
2022-12-18T19:34:52.525Z,20
2022-12-18T19:40:59.357Z,19
2022-12-18T19:47:13.213Z,19
2022-12-18T19:53:05.919Z,20
2022-12-18T19:58:59.170Z,20
2022-12-18T20:05:04.390Z,19
2022-12-18T20:11:12.003Z,19
2022-12-18T20:17:07.879Z,20
2022-12-18T20:23:10.180Z,21
2022-12-18T20:29:02.650Z,19
2022-12-18T20:35:04.197Z,21
2022-12-18T20:41:11.928Z,21
2022-12-18T20:46:59.989Z,20
2022-12-18T20:53:15.571Z,21
2022-12-18T20:58:57.154Z,21
2022-12-18T21:04:59.834Z,21
2022-12-18T21:11:15.136Z,21
2022-12-18T21:17:02.979Z,21
2022-12-18T21:23:17.505Z,22
2022-12-18T21:29:12.487Z,24
2022-12-18T21:35:21.409Z,21
2022-12-18T21:41:16.018Z,21
2022-12-18T21:47:20.889Z,21
2022-12-18T21:53:02.833Z,21
2022-12-18T21:59:03.383Z,20
2022-12-18T22:04:55.615Z,22
2022-12-18T22:11:02.682Z,21
2022-12-18T22:16:56.073Z,21
2022-12-18T22:23:07.530Z,21
2022-12-18T22:29:16.902Z,21
2022-12-18T22:35:16.136Z,21
2022-12-18T22:41:20.803Z,21
2022-12-18T22:47:07.442Z,21
2022-12-18T22:53:13.645Z,21
2022-12-18T22:59:06.876Z,21
2022-12-18T23:05:07.871Z,21
2022-12-18T23:11:41.146Z,21
2022-12-18T23:17:15.009Z,21
2022-12-18T23:23:14.733Z,21
2022-12-18T23:28:59.044Z,21
2022-12-18T23:35:08.797Z,21
2022-12-18T23:40:52.052Z,21
2022-12-18T23:46:56.167Z,21
2022-12-18T23:52:51.176Z,21
2022-12-18T23:58:52.727Z,21
